Pardeeville, WI (53954)

2:32 AM CDT on April 02, 2015 (GMT -0500)
RAWS | | Change Station
CLOSE
Current Station
Personal Weather Station
Location: Pardeeville, WI
Elevation: 830 ft
Nearby Weather Stations

Elev 830 ft 43.56 °N, 89.31 °W | Updated 18 minutes ago

Clear
Clear
59 °F
Feels Like 59 °F
N
9
Wind Variable Wind from SSW
Gusts 17.0 mph

Today
High -- | Low -- °F
--% Chance of Precip.
Yesterday
High -- | Low -- °F
Precip. -- in
6:37 AM 7:24 PM
Waxing Gibbous, 96% visible
Pressure 29.70 in
Visibility 10.0 miles
Clouds Scattered Clouds 11000 ft
Dew Point 41 °F
Humidity 51%
Rainfall in
Snow Depth Not available.
UV 0 out of 12
Pollen 8.50 out of 12
Air Quality Not available.
Flu Activity Not available.
METAR KDLL 020710Z AUTO 21009KT 10SM SCT110 15/03 A2970 RMK AO2 T01450025

More Conditions Fewer Conditions

Pressure 29.70 in
Visibility 10.0 miles
Clouds Scattered Clouds 11000 ft
Dew Point 41 °F
Humidity 51%
Rainfall in
Snow Depth Not available.
UV 0 out of 12
Pollen 8.50 out of 12
Air Quality Not available.
Flu Activity Not available.
METAR KDLL 020710Z AUTO 21009KT 10SM SCT110 15/03 A2970 RMK AO2 T01450025

More Conditions Fewer Conditions

10-Day Weather Forecast

Almanac

Astronomy

Apr. 02, 2015 Rise Set
Actual Time
Civil Twilight
Nautical Twilight
Astronomical Twilight
Moon
Length of Visible Light
Length of Day
Tomorrow will be .
, % of the Moon is Illuminated

Today's Extremes

State Highs State Lows

Community

WunderPhotos

Upload Photos

1,810,204 photos uploaded!

WunderBlogs® & News

Nearby

Air Quality

  Air Quality AQ Index Pollutant
Not available.

Snow Depth

Station Depth Elevation

Earthquake Activity

City Distance Mag. Time & Date
Minimum magnitude displayed is 2.5.

Coastal Water Temperatures

Place Temperature

Stations

Nearby Weather Stations

Station Location Temp. Windchill Dew Point Humidity Wind Precip. Elev Updated Type